sensor_id;sensor_type;location;lat;lon;timestamp;temperature;humidity
22130;DHT22;11231;50.746;4.272;2023-08-21T00:00:55;22.20;99.90
22130;DHT22;11231;50.746;4.272;2023-08-21T00:03:22;22.10;99.90
22130;DHT22;11231;50.746;4.272;2023-08-21T00:05:47;21.90;99.90
22130;DHT22;11231;50.746;4.272;2023-08-21T00:08:13;21.80;99.90
22130;DHT22;11231;50.746;4.272;2023-08-21T00:10:39;21.80;99.90
22130;DHT22;11231;50.746;4.272;2023-08-21T00:13:06;21.80;99.90
22130;DHT22;11231;50.746;4.272;2023-08-21T00:15:37;21.80;99.90
22130;DHT22;11231;50.746;4.272;2023-08-21T00:18:03;21.80;99.90
22130;DHT22;11231;50.746;4.272;2023-08-21T00:20:28;21.90;99.90
22130;DHT22;11231;50.746;4.272;2023-08-21T00:22:54;21.80;99.90
22130;DHT22;11231;50.746;4.272;2023-08-21T00:25:21;21.80;99.90
22130;DHT22;11231;50.746;4.272;2023-08-21T00:27:47;21.80;99.90
22130;DHT22;11231;50.746;4.272;2023-08-21T00:30:13;21.80;99.90
22130;DHT22;11231;50.746;4.272;2023-08-21T00:32:41;21.80;99.90
22130;DHT22;11231;50.746;4.272;2023-08-21T00:35:07;21.90;99.90
22130;DHT22;11231;50.746;4.272;2023-08-21T00:37:33;21.80;99.90
22130;DHT22;11231;50.746;4.272;2023-08-21T00:39:59;21.90;99.90
22130;DHT22;11231;50.746;4.272;2023-08-21T00:42:24;21.90;99.90
22130;DHT22;11231;50.746;4.272;2023-08-21T00:44:50;21.90;99.90
22130;DHT22;11231;50.746;4.272;2023-08-21T00:47:16;21.90;99.90
22130;DHT22;11231;50.746;4.272;2023-08-21T00:49:42;21.90;99.90
22130;DHT22;11231;50.746;4.272;2023-08-21T00:52:11;22.00;99.90
22130;DHT22;11231;50.746;4.272;2023-08-21T00:54:37;22.00;99.90
22130;DHT22;11231;50.746;4.272;2023-08-21T00:57:04;21.90;99.90
22130;DHT22;11231;50.746;4.272;2023-08-21T00:59:30;21.80;99.90
22130;DHT22;11231;50.746;4.272;2023-08-21T01:01:56;21.70;99.90
22130;DHT22;11231;50.746;4.272;2023-08-21T01:04:21;21.60;99.90
22130;DHT22;11231;50.746;4.272;2023-08-21T01:06:49;21.50;99.90
22130;DHT22;11231;50.746;4.272;2023-08-21T01:11:58;21.30;99.90
22130;DHT22;11231;50.746;4.272;2023-08-21T01:14:30;21.30;99.90
22130;DHT22;11231;50.746;4.272;2023-08-21T01:16:59;21.30;99.90
22130;DHT22;11231;50.746;4.272;2023-08-21T01:19:46;21.20;99.90
22130;DHT22;11231;50.746;4.272;2023-08-21T01:22:12;21.30;99.90
22130;DHT22;11231;50.746;4.272;2023-08-21T01:24:38;21.30;99.90
22130;DHT22;11231;50.746;4.272;2023-08-21T01:27:04;21.20;99.90
22130;DHT22;11231;50.746;4.272;2023-08-21T01:29:30;21.20;99.90
22130;DHT22;11231;50.746;4.272;2023-08-21T01:34:46;21.10;99.90
22130;DHT22;11231;50.746;4.272;2023-08-21T01:37:13;20.90;99.90
22130;DHT22;11231;50.746;4.272;2023-08-21T01:39:39;20.80;99.90
22130;DHT22;11231;50.746;4.272;2023-08-21T01:42:05;20.70;99.90
22130;DHT22;11231;50.746;4.272;2023-08-21T01:44:31;20.70;99.90
22130;DHT22;11231;50.746;4.272;2023-08-21T01:46:56;20.60;99.90
22130;DHT22;11231;50.746;4.272;2023-08-21T01:49:22;20.60;99.90
22130;DHT22;11231;50.746;4.272;2023-08-21T01:51:48;20.60;99.90
22130;DHT22;11231;50.746;4.272;2023-08-21T01:54:14;20.60;99.90
22130;DHT22;11231;50.746;4.272;2023-08-21T01:56:39;20.60;99.90
22130;DHT22;11231;50.746;4.272;2023-08-21T01:59:05;20.50;99.90
22130;DHT22;11231;50.746;4.272;2023-08-21T02:01:32;20.50;99.90
22130;DHT22;11231;50.746;4.272;2023-08-21T02:03:58;20.30;99.90
22130;DHT22;11231;50.746;4.272;2023-08-21T02:06:24;20.20;99.90
22130;DHT22;11231;50.746;4.272;2023-08-21T02:08:50;20.20;99.90
22130;DHT22;11231;50.746;4.272;2023-08-21T02:11:16;20.30;99.90
22130;DHT22;11231;50.746;4.272;2023-08-21T02:13:42;20.40;99.90
22130;DHT22;11231;50.746;4.272;2023-08-21T02:16:08;20.40;99.90
22130;DHT22;11231;50.746;4.272;2023-08-21T02:18:34;20.40;99.90
22130;DHT22;11231;50.746;4.272;2023-08-21T02:21:01;20.50;99.90
22130;DHT22;11231;50.746;4.272;2023-08-21T02:23:27;20.50;99.90
22130;DHT22;11231;50.746;4.272;2023-08-21T02:25:54;20.50;99.90
22130;DHT22;11231;50.746;4.272;2023-08-21T02:28:20;20.40;99.90
22130;DHT22;11231;50.746;4.272;2023-08-21T02:30:47;20.40;99.90
22130;DHT22;11231;50.746;4.272;2023-08-21T02:33:13;20.30;99.90
22130;DHT22;11231;50.746;4.272;2023-08-21T02:35:39;20.30;99.90
22130;DHT22;11231;50.746;4.272;2023-08-21T02:38:05;20.30;99.90
22130;DHT22;11231;50.746;4.272;2023-08-21T02:40:35;20.30;99.90
22130;DHT22;11231;50.746;4.272;2023-08-21T02:43:00;20.30;99.90
22130;DHT22;11231;50.746;4.272;2023-08-21T02:45:26;20.30;99.90
22130;DHT22;11231;50.746;4.272;2023-08-21T02:47:52;20.40;99.90
22130;DHT22;11231;50.746;4.272;2023-08-21T02:50:18;20.30;99.90
22130;DHT22;11231;50.746;4.272;2023-08-21T02:52:43;20.20;99.90
22130;DHT22;11231;50.746;4.272;2023-08-21T02:55:09;20.10;99.90
22130;DHT22;11231;50.746;4.272;2023-08-21T02:57:35;20.10;99.90
22130;DHT22;11231;50.746;4.272;2023-08-21T03:00:01;20.00;99.90
22130;DHT22;11231;50.746;4.272;2023-08-21T03:02:26;20.00;99.90
22130;DHT22;11231;50.746;4.272;2023-08-21T03:04:52;20.00;99.90
22130;DHT22;11231;50.746;4.272;2023-08-21T03:07:21;20.00;99.90
22130;DHT22;11231;50.746;4.272;2023-08-21T03:09:48;20.00;99.90
22130;DHT22;11231;50.746;4.272;2023-08-21T03:12:14;19.90;99.90
22130;DHT22;11231;50.746;4.272;2023-08-21T03:14:40;19.90;99.90
22130;DHT22;11231;50.746;4.272;2023-08-21T03:17:06;19.90;99.90
22130;DHT22;11231;50.746;4.272;2023-08-21T03:19:32;19.90;99.90
22130;DHT22;11231;50.746;4.272;2023-08-21T03:21:58;19.90;99.90
22130;DHT22;11231;50.746;4.272;2023-08-21T03:24:23;19.80;99.90
22130;DHT22;11231;50.746;4.272;2023-08-21T03:26:49;19.80;99.90
22130;DHT22;11231;50.746;4.272;2023-08-21T03:29:15;19.70;99.90
22130;DHT22;11231;50.746;4.272;2023-08-21T03:31:41;19.70;99.90
22130;DHT22;11231;50.746;4.272;2023-08-21T03:34:08;19.70;99.90
22130;DHT22;11231;50.746;4.272;2023-08-21T03:36:34;19.70;99.90
22130;DHT22;11231;50.746;4.272;2023-08-21T03:39:03;19.60;99.90
22130;DHT22;11231;50.746;4.272;2023-08-21T03:41:35;19.60;99.90
22130;DHT22;11231;50.746;4.272;2023-08-21T03:44:00;19.50;99.90
22130;DHT22;11231;50.746;4.272;2023-08-21T03:46:26;19.40;99.90
22130;DHT22;11231;50.746;4.272;2023-08-21T03:48:54;19.40;99.90
22130;DHT22;11231;50.746;4.272;2023-08-21T03:51:20;19.40;99.90
22130;DHT22;11231;50.746;4.272;2023-08-21T03:53:45;19.40;99.90
22130;DHT22;11231;50.746;4.272;2023-08-21T03:56:11;19.40;99.90
22130;DHT22;11231;50.746;4.272;2023-08-21T03:58:37;19.40;99.90
22130;DHT22;11231;50.746;4.272;2023-08-21T04:01:03;19.40;99.90
22130;DHT22;11231;50.746;4.272;2023-08-21T04:03:29;19.40;99.90
22130;DHT22;11231;50.746;4.272;2023-08-21T04:05:55;19.50;99.90
22130;DHT22;11231;50.746;4.272;2023-08-21T04:08:22;19.40;99.90
22130;DHT22;11231;50.746;4.272;2023-08-21T04:10:48;19.30;99.90
22130;DHT22;11231;50.746;4.272;2023-08-21T04:13:14;19.30;99.90
22130;DHT22;11231;50.746;4.272;2023-08-21T04:15:44;19.20;99.90
22130;DHT22;11231;50.746;4.272;2023-08-21T04:18:10;19.20;99.90
22130;DHT22;11231;50.746;4.272;2023-08-21T04:20:36;19.20;99.90
22130;DHT22;11231;50.746;4.272;2023-08-21T04:23:02;19.10;99.90
22130;DHT22;11231;50.746;4.272;2023-08-21T04:25:28;19.10;99.90
22130;DHT22;11231;50.746;4.272;2023-08-21T04:27:54;19.10;99.90
22130;DHT22;11231;50.746;4.272;2023-08-21T04:30:21;19.20;99.90
22130;DHT22;11231;50.746;4.272;2023-08-21T04:32:47;19.20;99.90
22130;DHT22;11231;50.746;4.272;2023-08-21T04:35:14;19.20;99.90
22130;DHT22;11231;50.746;4.272;2023-08-21T04:37:47;19.10;99.90
22130;DHT22;11231;50.746;4.272;2023-08-21T04:40:16;19.10;99.90
22130;DHT22;11231;50.746;4.272;2023-08-21T04:42:43;19.10;99.90
22130;DHT22;11231;50.746;4.272;2023-08-21T04:45:10;19.00;99.90
22130;DHT22;11231;50.746;4.272;2023-08-21T04:47:37;19.00;99.90
22130;DHT22;11231;50.746;4.272;2023-08-21T04:50:03;19.00;99.90
22130;DHT22;11231;50.746;4.272;2023-08-21T04:52:29;19.10;99.90
22130;DHT22;11231;50.746;4.272;2023-08-21T04:54:55;19.10;99.90
22130;DHT22;11231;50.746;4.272;2023-08-21T04:57:21;19.10;99.90
22130;DHT22;11231;50.746;4.272;2023-08-21T04:59:47;19.10;99.90
22130;DHT22;11231;50.746;4.272;2023-08-21T05:02:14;19.10;99.90
22130;DHT22;11231;50.746;4.272;2023-08-21T05:04:40;19.20;99.90
22130;DHT22;11231;50.746;4.272;2023-08-21T05:07:06;19.20;99.90
22130;DHT22;11231;50.746;4.272;2023-08-21T05:09:32;19.10;99.90
22130;DHT22;11231;50.746;4.272;2023-08-21T05:11:58;19.20;99.90
22130;DHT22;11231;50.746;4.272;2023-08-21T05:14:24;19.30;99.90
22130;DHT22;11231;50.746;4.272;2023-08-21T05:16:50;19.40;99.90
22130;DHT22;11231;50.746;4.272;2023-08-21T05:19:18;19.40;99.90
22130;DHT22;11231;50.746;4.272;2023-08-21T05:21:45;19.40;99.90
22130;DHT22;11231;50.746;4.272;2023-08-21T05:24:11;19.40;99.90
22130;DHT22;11231;50.746;4.272;2023-08-21T05:26:40;19.50;99.90
22130;DHT22;11231;50.746;4.272;2023-08-21T05:29:06;19.80;99.90
22130;DHT22;11231;50.746;4.272;2023-08-21T05:31:31;20.70;99.90
22130;DHT22;11231;50.746;4.272;2023-08-21T05:33:58;21.80;99.90
22130;DHT22;11231;50.746;4.272;2023-08-21T05:36:24;22.80;99.90
22130;DHT22;11231;50.746;4.272;2023-08-21T05:38:50;23.60;99.90
22130;DHT22;11231;50.746;4.272;2023-08-21T05:41:18;24.10;99.90
22130;DHT22;11231;50.746;4.272;2023-08-21T05:43:44;24.80;99.90
22130;DHT22;11231;50.746;4.272;2023-08-21T05:46:12;25.60;99.90
22130;DHT22;11231;50.746;4.272;2023-08-21T05:48:38;26.20;99.90
22130;DHT22;11231;50.746;4.272;2023-08-21T05:51:03;26.90;99.90
22130;DHT22;11231;50.746;4.272;2023-08-21T05:53:31;27.70;99.90
22130;DHT22;11231;50.746;4.272;2023-08-21T05:55:56;28.30;99.90
22130;DHT22;11231;50.746;4.272;2023-08-21T05:58:23;28.60;99.90
22130;DHT22;11231;50.746;4.272;2023-08-21T06:00:49;29.00;99.90
22130;DHT22;11231;50.746;4.272;2023-08-21T06:03:15;28.20;99.90
22130;DHT22;11231;50.746;4.272;2023-08-21T06:05:54;27.50;99.90
22130;DHT22;11231;50.746;4.272;2023-08-21T06:08:20;27.00;99.90
22130;DHT22;11231;50.746;4.272;2023-08-21T06:10:51;26.90;99.90
22130;DHT22;11231;50.746;4.272;2023-08-21T06:13:16;27.80;99.90
22130;DHT22;11231;50.746;4.272;2023-08-21T06:15:44;28.80;99.90
22130;DHT22;11231;50.746;4.272;2023-08-21T06:18:14;28.90;99.90
22130;DHT22;11231;50.746;4.272;2023-08-21T06:20:43;29.40;99.90
22130;DHT22;11231;50.746;4.272;2023-08-21T06:23:12;29.50;99.90
22130;DHT22;11231;50.746;4.272;2023-08-21T06:25:38;29.00;99.90
22130;DHT22;11231;50.746;4.272;2023-08-21T06:28:04;29.10;99.90
22130;DHT22;11231;50.746;4.272;2023-08-21T06:30:31;29.70;99.90
22130;DHT22;11231;50.746;4.272;2023-08-21T06:32:57;30.30;99.90
22130;DHT22;11231;50.746;4.272;2023-08-21T06:35:25;30.90;99.90
22130;DHT22;11231;50.746;4.272;2023-08-21T06:37:52;30.90;99.90
22130;DHT22;11231;50.746;4.272;2023-08-21T06:40:20;30.70;99.90
22130;DHT22;11231;50.746;4.272;2023-08-21T06:42:46;31.10;99.90
22130;DHT22;11231;50.746;4.272;2023-08-21T06:45:13;31.80;99.90
22130;DHT22;11231;50.746;4.272;2023-08-21T06:47:39;32.40;99.90
22130;DHT22;11231;50.746;4.272;2023-08-21T06:50:06;33.30;99.90
22130;DHT22;11231;50.746;4.272;2023-08-21T06:52:32;33.90;99.90
22130;DHT22;11231;50.746;4.272;2023-08-21T06:54:57;34.70;99.90
22130;DHT22;11231;50.746;4.272;2023-08-21T06:57:23;35.60;99.90
22130;DHT22;11231;50.746;4.272;2023-08-21T06:59:49;36.30;98.30
22130;DHT22;11231;50.746;4.272;2023-08-21T07:02:14;36.00;95.90
22130;DHT22;11231;50.746;4.272;2023-08-21T07:04:40;36.20;95.50
22130;DHT22;11231;50.746;4.272;2023-08-21T07:07:06;36.90;93.10
22130;DHT22;11231;50.746;4.272;2023-08-21T07:09:32;36.70;93.20
22130;DHT22;11231;50.746;4.272;2023-08-21T07:11:57;36.80;92.50
22130;DHT22;11231;50.746;4.272;2023-08-21T07:14:23;36.90;90.10
22130;DHT22;11231;50.746;4.272;2023-08-21T07:16:49;36.90;90.50
22130;DHT22;11231;50.746;4.272;2023-08-21T07:19:14;37.70;88.90
22130;DHT22;11231;50.746;4.272;2023-08-21T07:21:40;38.90;86.70
22130;DHT22;11231;50.746;4.272;2023-08-21T07:24:06;39.30;82.30
22130;DHT22;11231;50.746;4.272;2023-08-21T07:26:32;39.80;80.00
22130;DHT22;11231;50.746;4.272;2023-08-21T07:28:58;40.00;76.70
22130;DHT22;11231;50.746;4.272;2023-08-21T07:31:23;39.50;75.00
22130;DHT22;11231;50.746;4.272;2023-08-21T07:33:49;40.10;74.90
22130;DHT22;11231;50.746;4.272;2023-08-21T07:36:15;40.40;72.60
22130;DHT22;11231;50.746;4.272;2023-08-21T07:38:45;39.90;72.50
22130;DHT22;11231;50.746;4.272;2023-08-21T07:41:12;38.60;73.80
22130;DHT22;11231;50.746;4.272;2023-08-21T07:43:41;39.40;72.80
22130;DHT22;11231;50.746;4.272;2023-08-21T07:46:08;38.20;73.80
22130;DHT22;11231;50.746;4.272;2023-08-21T07:48:35;38.30;75.00
22130;DHT22;11231;50.746;4.272;2023-08-21T07:51:01;37.80;74.20
22130;DHT22;11231;50.746;4.272;2023-08-21T07:53:27;38.60;74.40
22130;DHT22;11231;50.746;4.272;2023-08-21T07:55:54;38.50;73.60
22130;DHT22;11231;50.746;4.272;2023-08-21T07:58:20;39.10;74.20
22130;DHT22;11231;50.746;4.272;2023-08-21T08:00:46;39.80;72.10
22130;DHT22;11231;50.746;4.272;2023-08-21T08:03:11;40.50;70.50
22130;DHT22;11231;50.746;4.272;2023-08-21T08:05:40;41.30;69.60
22130;DHT22;11231;50.746;4.272;2023-08-21T08:08:06;40.00;69.50
22130;DHT22;11231;50.746;4.272;2023-08-21T08:10:32;40.80;70.20
22130;DHT22;11231;50.746;4.272;2023-08-21T08:12:58;40.20;69.90
22130;DHT22;11231;50.746;4.272;2023-08-21T08:15:23;39.80;70.90
22130;DHT22;11231;50.746;4.272;2023-08-21T08:17:49;39.30;70.90
22130;DHT22;11231;50.746;4.272;2023-08-21T08:20:19;40.60;70.00
22130;DHT22;11231;50.746;4.272;2023-08-21T08:22:44;41.60;67.90
22130;DHT22;11231;50.746;4.272;2023-08-21T08:25:10;42.00;67.60
22130;DHT22;11231;50.746;4.272;2023-08-21T08:27:36;42.10;65.70
22130;DHT22;11231;50.746;4.272;2023-08-21T08:30:03;42.60;65.70
22130;DHT22;11231;50.746;4.272;2023-08-21T08:32:29;42.30;63.20
22130;DHT22;11231;50.746;4.272;2023-08-21T08:34:55;42.90;62.20
22130;DHT22;11231;50.746;4.272;2023-08-21T08:37:21;43.10;62.60
22130;DHT22;11231;50.746;4.272;2023-08-21T08:39:47;42.30;62.70
22130;DHT22;11231;50.746;4.272;2023-08-21T08:42:14;41.10;65.00
22130;DHT22;11231;50.746;4.272;2023-08-21T08:44:41;42.20;65.00
22130;DHT22;11231;50.746;4.272;2023-08-21T08:47:11;42.90;62.80
22130;DHT22;11231;50.746;4.272;2023-08-21T08:49:40;43.70;60.50
22130;DHT22;11231;50.746;4.272;2023-08-21T08:52:06;44.30;59.30
22130;DHT22;11231;50.746;4.272;2023-08-21T08:54:32;44.40;59.20
22130;DHT22;11231;50.746;4.272;2023-08-21T08:57:01;42.90;59.10
22130;DHT22;11231;50.746;4.272;2023-08-21T08:59:30;42.00;61.80
22130;DHT22;11231;50.746;4.272;2023-08-21T09:01:56;40.90;63.70
22130;DHT22;11231;50.746;4.272;2023-08-21T09:04:22;41.60;62.50
22130;DHT22;11231;50.746;4.272;2023-08-21T09:06:47;41.60;63.00
22130;DHT22;11231;50.746;4.272;2023-08-21T09:09:13;42.60;62.30
22130;DHT22;11231;50.746;4.272;2023-08-21T09:11:44;43.50;60.50
22130;DHT22;11231;50.746;4.272;2023-08-21T09:14:11;44.20;58.90
22130;DHT22;11231;50.746;4.272;2023-08-21T09:16:37;44.70;58.00
22130;DHT22;11231;50.746;4.272;2023-08-21T09:19:03;44.90;57.00
22130;DHT22;11231;50.746;4.272;2023-08-21T09:21:29;44.40;57.20
22130;DHT22;11231;50.746;4.272;2023-08-21T09:23:59;44.60;56.00
22130;DHT22;11231;50.746;4.272;2023-08-21T09:26:25;44.60;57.20
22130;DHT22;11231;50.746;4.272;2023-08-21T09:28:52;44.70;56.20
22130;DHT22;11231;50.746;4.272;2023-08-21T09:31:22;45.00;55.80
22130;DHT22;11231;50.746;4.272;2023-08-21T09:33:56;45.10;56.00
22130;DHT22;11231;50.746;4.272;2023-08-21T09:36:23;44.50;54.40
22130;DHT22;11231;50.746;4.272;2023-08-21T09:38:51;43.50;57.00
22130;DHT22;11231;50.746;4.272;2023-08-21T09:41:22;43.50;56.20
22130;DHT22;11231;50.746;4.272;2023-08-21T09:43:48;43.40;56.10
22130;DHT22;11231;50.746;4.272;2023-08-21T09:46:15;43.60;53.10
22130;DHT22;11231;50.746;4.272;2023-08-21T09:48:45;42.90;52.20
22130;DHT22;11231;50.746;4.272;2023-08-21T09:51:12;43.40;52.60
22130;DHT22;11231;50.746;4.272;2023-08-21T09:53:38;43.60;54.70
22130;DHT22;11231;50.746;4.272;2023-08-21T09:56:06;43.70;53.90
22130;DHT22;11231;50.746;4.272;2023-08-21T09:58:32;44.30;53.10
22130;DHT22;11231;50.746;4.272;2023-08-21T10:00:58;45.10;52.60
22130;DHT22;11231;50.746;4.272;2023-08-21T10:03:25;45.40;51.60
22130;DHT22;11231;50.746;4.272;2023-08-21T10:05:55;44.60;48.80
22130;DHT22;11231;50.746;4.272;2023-08-21T10:08:24;44.20;50.10
22130;DHT22;11231;50.746;4.272;2023-08-21T10:10:51;43.80;50.20
22130;DHT22;11231;50.746;4.272;2023-08-21T10:13:17;43.30;51.00
22130;DHT22;11231;50.746;4.272;2023-08-21T10:15:44;43.80;51.50
22130;DHT22;11231;50.746;4.272;2023-08-21T10:18:32;43.60;49.90
22130;DHT22;11231;50.746;4.272;2023-08-21T10:23:39;44.40;50.00
22130;DHT22;11231;50.746;4.272;2023-08-21T10:26:06;42.70;50.10
22130;DHT22;11231;50.746;4.272;2023-08-21T10:28:55;40.80;53.00
22130;DHT22;11231;50.746;4.272;2023-08-21T10:33:54;40.30;54.00
22130;DHT22;11231;50.746;4.272;2023-08-21T10:36:39;40.80;52.30
22130;DHT22;11231;50.746;4.272;2023-08-21T10:39:22;42.00;51.10
22130;DHT22;11231;50.746;4.272;2023-08-21T10:41:57;42.50;50.00
22130;DHT22;11231;50.746;4.272;2023-08-21T10:47:31;39.50;52.20
22130;DHT22;11231;50.746;4.272;2023-08-21T10:50:08;39.50;52.60
22130;DHT22;11231;50.746;4.272;2023-08-21T10:52:37;37.30;55.90
22130;DHT22;11231;50.746;4.272;2023-08-21T10:55:05;36.70;57.90
22130;DHT22;11231;50.746;4.272;2023-08-21T10:57:32;37.20;58.00
22130;DHT22;11231;50.746;4.272;2023-08-21T11:00:00;37.20;55.60
22130;DHT22;11231;50.746;4.272;2023-08-21T11:02:28;38.80;57.10
22130;DHT22;11231;50.746;4.272;2023-08-21T11:04:58;40.30;53.70
22130;DHT22;11231;50.746;4.272;2023-08-21T11:07:25;41.70;53.10
22130;DHT22;11231;50.746;4.272;2023-08-21T11:09:51;42.10;53.30
22130;DHT22;11231;50.746;4.272;2023-08-21T11:12:22;42.00;51.60
22130;DHT22;11231;50.746;4.272;2023-08-21T11:14:48;42.50;51.40
22130;DHT22;11231;50.746;4.272;2023-08-21T11:17:15;42.80;50.00
22130;DHT22;11231;50.746;4.272;2023-08-21T11:19:41;42.50;52.00
22130;DHT22;11231;50.746;4.272;2023-08-21T11:22:08;42.40;52.40
22130;DHT22;11231;50.746;4.272;2023-08-21T11:24:40;42.10;52.40
22130;DHT22;11231;50.746;4.272;2023-08-21T11:27:11;41.50;52.80
22130;DHT22;11231;50.746;4.272;2023-08-21T11:29:42;41.70;53.00
22130;DHT22;11231;50.746;4.272;2023-08-21T11:32:09;41.90;53.70
22130;DHT22;11231;50.746;4.272;2023-08-21T11:34:35;42.50;52.10
22130;DHT22;11231;50.746;4.272;2023-08-21T11:37:02;43.20;52.60
22130;DHT22;11231;50.746;4.272;2023-08-21T11:39:39;43.50;52.90
22130;DHT22;11231;50.746;4.272;2023-08-21T11:42:09;43.70;52.60
22130;DHT22;11231;50.746;4.272;2023-08-21T11:44:52;43.70;51.40
22130;DHT22;11231;50.746;4.272;2023-08-21T11:47:20;43.50;51.10
22130;DHT22;11231;50.746;4.272;2023-08-21T11:49:47;42.40;51.90
22130;DHT22;11231;50.746;4.272;2023-08-21T11:52:21;40.90;52.80
22130;DHT22;11231;50.746;4.272;2023-08-21T11:54:51;40.10;53.80
22130;DHT22;11231;50.746;4.272;2023-08-21T11:57:17;40.80;55.10
22130;DHT22;11231;50.746;4.272;2023-08-21T11:59:43;41.50;52.50
22130;DHT22;11231;50.746;4.272;2023-08-21T12:02:18;41.30;51.90
22130;DHT22;11231;50.746;4.272;2023-08-21T12:04:44;40.80;55.40
22130;DHT22;11231;50.746;4.272;2023-08-21T12:07:10;40.40;54.10
22130;DHT22;11231;50.746;4.272;2023-08-21T12:09:35;41.00;54.80
22130;DHT22;11231;50.746;4.272;2023-08-21T12:12:01;41.40;53.80
22130;DHT22;11231;50.746;4.272;2023-08-21T12:14:28;41.40;52.10
22130;DHT22;11231;50.746;4.272;2023-08-21T12:16:54;41.00;54.00
22130;DHT22;11231;50.746;4.272;2023-08-21T12:19:22;39.50;53.50
22130;DHT22;11231;50.746;4.272;2023-08-21T12:21:48;39.90;55.90
22130;DHT22;11231;50.746;4.272;2023-08-21T12:24:14;40.20;54.00
22130;DHT22;11231;50.746;4.272;2023-08-21T12:26:40;40.30;54.80
22130;DHT22;11231;50.746;4.272;2023-08-21T12:29:05;40.50;53.70
22130;DHT22;11231;50.746;4.272;2023-08-21T12:31:31;40.20;54.10
22130;DHT22;11231;50.746;4.272;2023-08-21T12:33:57;38.80;54.10
22130;DHT22;11231;50.746;4.272;2023-08-21T12:36:23;37.40;55.50
22130;DHT22;11231;50.746;4.272;2023-08-21T12:38:49;35.60;58.50
22130;DHT22;11231;50.746;4.272;2023-08-21T12:41:15;35.10;59.50
22130;DHT22;11231;50.746;4.272;2023-08-21T12:43:40;34.80;61.10
22130;DHT22;11231;50.746;4.272;2023-08-21T12:46:06;34.60;59.90
22130;DHT22;11231;50.746;4.272;2023-08-21T12:48:32;34.40;60.00
22130;DHT22;11231;50.746;4.272;2023-08-21T12:50:58;34.00;61.10
22130;DHT22;11231;50.746;4.272;2023-08-21T12:53:23;33.70;62.90
22130;DHT22;11231;50.746;4.272;2023-08-21T12:55:49;33.20;66.10
22130;DHT22;11231;50.746;4.272;2023-08-21T12:58:15;33.00;62.00
22130;DHT22;11231;50.746;4.272;2023-08-21T13:00:41;32.20;64.30
22130;DHT22;11231;50.746;4.272;2023-08-21T13:03:06;31.60;63.50
22130;DHT22;11231;50.746;4.272;2023-08-21T13:05:33;31.60;65.60
22130;DHT22;11231;50.746;4.272;2023-08-21T13:08:00;31.50;65.60
22130;DHT22;11231;50.746;4.272;2023-08-21T13:10:25;31.30;65.20
22130;DHT22;11231;50.746;4.272;2023-08-21T13:12:51;31.30;65.90
22130;DHT22;11231;50.746;4.272;2023-08-21T13:15:17;31.40;69.50
22130;DHT22;11231;50.746;4.272;2023-08-21T13:17:43;31.50;68.60
22130;DHT22;11231;50.746;4.272;2023-08-21T13:20:09;31.60;69.40
22130;DHT22;11231;50.746;4.272;2023-08-21T13:22:50;31.70;69.90
22130;DHT22;11231;50.746;4.272;2023-08-21T13:25:18;31.60;69.60
22130;DHT22;11231;50.746;4.272;2023-08-21T13:27:45;31.20;70.40
22130;DHT22;11231;50.746;4.272;2023-08-21T13:30:12;30.80;67.50
22130;DHT22;11231;50.746;4.272;2023-08-21T13:32:38;30.70;70.70
22130;DHT22;11231;50.746;4.272;2023-08-21T13:35:04;30.70;71.10
22130;DHT22;11231;50.746;4.272;2023-08-21T13:37:37;30.70;71.40
22130;DHT22;11231;50.746;4.272;2023-08-21T13:40:04;30.30;69.40
22130;DHT22;11231;50.746;4.272;2023-08-21T13:42:38;30.10;71.00
22130;DHT22;11231;50.746;4.272;2023-08-21T13:45:12;30.10;71.10
22130;DHT22;11231;50.746;4.272;2023-08-21T13:47:48;30.10;70.70
22130;DHT22;11231;50.746;4.272;2023-08-21T13:50:15;30.00;73.20
22130;DHT22;11231;50.746;4.272;2023-08-21T13:52:42;30.00;66.70
22130;DHT22;11231;50.746;4.272;2023-08-21T13:55:09;30.00;71.30
22130;DHT22;11231;50.746;4.272;2023-08-21T13:57:38;30.10;70.60
22130;DHT22;11231;50.746;4.272;2023-08-21T14:00:05;30.10;69.50
22130;DHT22;11231;50.746;4.272;2023-08-21T14:02:37;29.80;69.10
22130;DHT22;11231;50.746;4.272;2023-08-21T14:05:03;29.80;71.50
22130;DHT22;11231;50.746;4.272;2023-08-21T14:07:31;29.80;70.80
22130;DHT22;11231;50.746;4.272;2023-08-21T14:09:57;29.90;67.00
22130;DHT22;11231;50.746;4.272;2023-08-21T14:12:22;29.60;69.40
22130;DHT22;11231;50.746;4.272;2023-08-21T14:14:48;29.70;73.20
22130;DHT22;11231;50.746;4.272;2023-08-21T14:17:14;29.80;69.10
22130;DHT22;11231;50.746;4.272;2023-08-21T14:19:40;29.80;72.20
22130;DHT22;11231;50.746;4.272;2023-08-21T14:22:06;29.70;67.40
22130;DHT22;11231;50.746;4.272;2023-08-21T14:24:32;29.40;70.40
22130;DHT22;11231;50.746;4.272;2023-08-21T14:26:58;29.20;72.20
22130;DHT22;11231;50.746;4.272;2023-08-21T14:29:24;29.20;70.70
22130;DHT22;11231;50.746;4.272;2023-08-21T14:31:50;29.40;70.30
22130;DHT22;11231;50.746;4.272;2023-08-21T14:34:19;29.60;69.10
22130;DHT22;11231;50.746;4.272;2023-08-21T14:36:46;29.80;72.10
22130;DHT22;11231;50.746;4.272;2023-08-21T14:39:13;29.90;70.10
22130;DHT22;11231;50.746;4.272;2023-08-21T14:41:40;29.90;68.50
22130;DHT22;11231;50.746;4.272;2023-08-21T14:44:06;29.90;70.00
22130;DHT22;11231;50.746;4.272;2023-08-21T14:46:32;29.80;68.90
22130;DHT22;11231;50.746;4.272;2023-08-21T14:48:58;29.70;67.80
22130;DHT22;11231;50.746;4.272;2023-08-21T14:51:24;29.70;73.90
22130;DHT22;11231;50.746;4.272;2023-08-21T14:53:50;29.80;67.50
22130;DHT22;11231;50.746;4.272;2023-08-21T14:56:16;29.90;68.80
22130;DHT22;11231;50.746;4.272;2023-08-21T14:58:42;29.90;67.40
22130;DHT22;11231;50.746;4.272;2023-08-21T15:01:09;29.60;68.40
22130;DHT22;11231;50.746;4.272;2023-08-21T15:03:36;29.50;67.40
22130;DHT22;11231;50.746;4.272;2023-08-21T15:06:02;29.50;65.60
22130;DHT22;11231;50.746;4.272;2023-08-21T15:08:28;29.50;65.60
22130;DHT22;11231;50.746;4.272;2023-08-21T15:10:54;29.30;64.50
22130;DHT22;11231;50.746;4.272;2023-08-21T15:13:20;29.20;66.10
22130;DHT22;11231;50.746;4.272;2023-08-21T15:15:45;29.30;66.50
22130;DHT22;11231;50.746;4.272;2023-08-21T15:18:11;29.10;65.70
22130;DHT22;11231;50.746;4.272;2023-08-21T15:20:37;29.20;66.80
22130;DHT22;11231;50.746;4.272;2023-08-21T15:23:03;29.10;67.70
22130;DHT22;11231;50.746;4.272;2023-08-21T15:25:28;29.10;67.00
22130;DHT22;11231;50.746;4.272;2023-08-21T15:27:54;29.20;66.80
22130;DHT22;11231;50.746;4.272;2023-08-21T15:30:20;29.30;64.70
22130;DHT22;11231;50.746;4.272;2023-08-21T15:32:46;29.10;63.40
22130;DHT22;11231;50.746;4.272;2023-08-21T15:35:13;28.90;65.20
22130;DHT22;11231;50.746;4.272;2023-08-21T15:37:40;28.90;67.20
22130;DHT22;11231;50.746;4.272;2023-08-21T15:40:06;29.10;67.00
22130;DHT22;11231;50.746;4.272;2023-08-21T15:42:32;28.80;64.90